DELAWARE BAY NM Southeast of Cape May, NJ (44009)

Conditions for Sunday

Daily
Weekly
Monthly
Marine Data Graph
Ad Blocker Enabled

Marine & Boating Location Search

Enter a coastal zip code for marine weather.

General Information

Location: 38.461 North -74.703 West
Buoy Type: 3-meter discus buoy
Buoy Hull: 3DV10
Payload: AMPS payload
Owned by: NDBC
Windspeed: Measured by obtained from anemometer
Sea Surface: Measured by Intake
Note: Right whales are active off Delaware Bay from November to April.  Speed restrictions of 10 knots apply to vessels 65 feet or greater in specific areas along the mid-Atlantic coast.  To learn more about right whales and rules protecting them, go to: http://www.nmfs.noaa.gov/pr/shipstrike 

Weather and Wave Data

Time Temp Humidity Wind Dominant Wave Wind Wave Wave Swell Pressure
  Air
(°F)
Water
(°F)
  Dir Speed
(kts)
Speed
(mph)
Period
(sec)
Height
(ft)
Range
(ft)
Period
(sec)
Height
(ft)
Range
(ft)
Period
(sec)
Height
(ft)
Range
(ft)
Atmo.
(in)
Tend.
(in)
20:50 72 71 100 - 13.6 15.7 8 4.92 exactly 4.9 6 3.28 2.46 - 4.10 8 3.28 2.46 - 4.10 29.70 +0.04
21:50 72 71 100 - 11.7 13.4 8 5.25 exactly 5.2 5 3.28 2.46 - 4.10 8 4.92 4.10 - 5.74 29.72 +0.04
22:50 72 71 98 - 11.7 13.4 8 4.59 exactly 4.6 5 3.28 2.46 - 4.10 8 3.28 2.46 - 4.10 29.73 +0.03
23:50 72 71 98 - 11.7 13.4 8 4.59 exactly 4.6 6 3.28 2.46 - 4.10 8 3.28 2.46 - 4.10 29.74 +0.04
00:50 72 71 100 - 11.7 13.4 8 4.92 exactly 4.9 5 3.28 2.46 - 4.10 8 3.28 2.46 - 4.10 29.75 +0.03
01:50 72 71 100 - 9.7 11.2 8 4.92 exactly 4.9 5 1.64 0.82 - 2.46 8 4.92 4.10 - 5.74 29.76 +0.04
02:50 73 71 99 - 11.7 13.4 8 5.25 exactly 5.2 5 3.28 2.46 - 4.10 8 4.92 4.10 - 5.74 29.75 +0.01
03:50 73 71 100 - 11.7 13.4 8 5.25 exactly 5.2 6 3.28 2.46 - 4.10 8 4.92 4.10 - 5.74 29.75 -
04:50 72 71 100 - 11.7 13.4 8 5.25 exactly 5.2 5 3.28 2.46 - 4.10 8 4.92 4.10 - 5.74 29.76 -
05:50 72 71 100 - 11.7 13.4 8 5.25 exactly 5.2 5 3.28 2.46 - 4.10 8 4.92 4.10 - 5.74 29.78 +0.03
06:50 72 71 100 - 11.7 13.4 8 5.25 exactly 5.2 6 3.28 2.46 - 4.10 8 4.92 4.10 - 5.74 29.80 +0.05
07:50 72 71 100 - 13.6 15.7 8 4.92 exactly 4.9 6 3.28 2.46 - 4.10 8 3.28 2.46 - 4.10 29.82 +0.06
08:50 72 71 100 - 11.7 13.4 8 5.25 exactly 5.2 5 1.64 0.82 - 2.46 8 4.92 4.10 - 5.74 29.83 +0.05
09:50 72 71 100 - 11.7 13.4 8 5.25 exactly 5.2 6 3.28 2.46 - 4.10 8 4.92 4.10 - 5.74 29.83 +0.03
10:50 72 71 100 - 15.6 17.9 8 4.59 exactly 4.6 6 3.28 2.46 - 4.10 8 3.28 2.46 - 4.10 29.83 +0.01
11:50 72 72 100 - 11.7 13.4 8 5.25 exactly 5.2 5 1.64 0.82 - 2.46 8 4.92 4.10 - 5.74 29.84 +0.01
12:50 72 72 100 - 11.7 13.4 8 4.92 exactly 4.9 4 1.64 0.82 - 2.46 8 4.92 4.10 - 5.74 29.85 +0.01
13:50 72 72 100 - 9.7 11.2 8 4.59 exactly 4.6 4 1.64 0.82 - 2.46 8 4.92 4.10 - 5.74 29.84 -
14:50 73 72 100 - 13.6 15.7 8 4.59 exactly 4.6 6 3.28 2.46 - 4.10 8 3.28 2.46 - 4.10 29.83 -0.01
15:50 73 72 99 - 13.6 15.7 8 4.92 exactly 4.9 6 3.28 2.46 - 4.10 8 3.28 2.46 - 4.10 29.83 -0.01
16:50 73 72 100 - 15.6 17.9 8 4.92 exactly 4.9 7 3.28 2.46 - 4.10 8 3.28 2.46 - 4.10 29.83 -0.01
17:50 73 72 99 - 17.5 20.1 8 4.59 exactly 4.6 6 3.28 2.46 - 4.10 8 3.28 2.46 - 4.10 29.84 +0.01
18:50 73 72 100 - 15.6 17.9 8 4.92 exactly 4.9 6 3.28 2.46 - 4.10 8 3.28 2.46 - 4.10 29.86 +0.02
19:50 73 71 99 - 13.6 15.7 8 4.92 exactly 4.9 7 3.28 2.46 - 4.10 8 3.28 2.46 - 4.10 29.87 +0.04
20:50 73 71 99 - 11.7 13.4 8 5.25 exactly 5.2 5 3.28 2.46 - 4.10 8 4.92 4.10 - 5.74 29.89 +0.05
21:50 73 71 99 - 13.6 15.7 8 4.59 exactly 4.6 6 3.28 2.46 - 4.10 8 3.28 2.46 - 4.10 29.90 +0.05
22:50 73 71 99 - 11.7 13.4 8 4.59 exactly 4.6 4 3.28 2.46 - 4.10 8 3.28 2.46 - 4.10 29.91 +0.04
23:50 73 70 99 - 13.6 15.7 8 5.25 exactly 5.2 5 4.92 4.10 - 5.74 8 3.28 2.46 - 4.10 29.91 +0.02
00:50 72 70 100 - 13.6 15.7 8 4.92 exactly 4.9 7 3.28 2.46 - 4.10 8 3.28 2.46 - 4.10 29.91 +0.01
02:50 73 70 99 - 13.6 15.7 8 4.59 exactly 4.6 6 3.28 2.46 - 4.10 8 3.28 2.46 - 4.10 29.91 -
03:50 73 70 99 - 11.7 13.4 8 5.25 exactly 5.2 5 3.28 2.46 - 4.10 8 3.28 2.46 - 4.10 29.91 -

Detailed Wave Spectra

Time Water Depth Wave Height Spectral Peak Period Average Wave Period Sampling Interval Wave Record
20:00 102 ft 4.95 ft 7.7 sec 5.6 sec 0.6 sec 2400 sec
21:00 102 ft 4.95 ft 7.7 sec 5.8 sec 0.6 sec 2400 sec
22:00 102 ft 5.41 ft 7.7 sec 5.8 sec 0.6 sec 2400 sec
23:00 102 ft 4.63 ft 8.3 sec 5.4 sec 0.6 sec 2400 sec
00:00 102 ft 4.53 ft 7.7 sec 5.6 sec 0.6 sec 2400 sec
01:00 102 ft 4.89 ft 8.3 sec 5.6 sec 0.6 sec 2400 sec
02:00 102 ft 4.95 ft 8.3 sec 5.9 sec 0.6 sec 2400 sec
03:00 102 ft 5.09 ft 8.3 sec 5.9 sec 0.6 sec 2400 sec
04:00 102 ft 5.15 ft 7.7 sec 6.0 sec 0.6 sec 2400 sec
05:00 102 ft 5.31 ft 7.7 sec 6.1 sec 0.6 sec 2400 sec
06:00 102 ft 5.28 ft 8.3 sec 5.9 sec 0.6 sec 2400 sec
07:00 102 ft 5.18 ft 7.7 sec 5.9 sec 0.6 sec 2400 sec
08:00 102 ft 5.02 ft 7.7 sec 5.8 sec 0.6 sec 2400 sec
09:00 102 ft 5.38 ft 7.7 sec 5.9 sec 0.6 sec 2400 sec
10:00 102 ft 5.09 ft 7.7 sec 5.7 sec 0.6 sec 2400 sec
11:00 102 ft 4.72 ft 8.3 sec 5.7 sec 0.6 sec 2400 sec
12:00 102 ft 5.25 ft 7.7 sec 5.8 sec 0.6 sec 2400 sec
13:00 102 ft 5.09 ft 7.7 sec 5.7 sec 0.6 sec 2400 sec
14:00 102 ft 4.63 ft 7.7 sec 5.7 sec 0.6 sec 2400 sec
15:00 102 ft 4.66 ft 7.7 sec 5.6 sec 0.6 sec 2400 sec
16:00 102 ft 4.79 ft 7.7 sec 5.8 sec 0.6 sec 2400 sec
17:00 102 ft 4.92 ft 8.3 sec 5.5 sec 0.6 sec 2400 sec
18:00 102 ft 4.46 ft 8.3 sec 5.3 sec 0.6 sec 2400 sec
19:00 102 ft 4.95 ft 8.3 sec 5.4 sec 0.6 sec 2400 sec
20:00 102 ft 4.95 ft 7.7 sec 5.2 sec 0.6 sec 2400 sec
21:00 102 ft 5.31 ft 8.3 sec 5.3 sec 0.6 sec 2400 sec
22:00 102 ft 4.69 ft 7.7 sec 5.0 sec 0.6 sec 2400 sec
23:00 102 ft 4.69 ft 7.7 sec 5.2 sec 0.6 sec 2400 sec
00:00 102 ft 5.22 ft 7.7 sec 5.2 sec 0.6 sec 2400 sec
01:00 102 ft 4.86 ft 7.7 sec 5.1 sec 0.6 sec 2400 sec
03:00 102 ft 4.69 ft 7.7 sec 5.0 sec 0.6 sec 2400 sec